createdAt,value
2022-08-15T00:03:10.620Z,9.80
2022-08-15T00:08:49.607Z,9.60
2022-08-15T00:13:41.186Z,9.10
2022-08-15T00:18:48.481Z,9.30
2022-08-15T00:23:53.127Z,9.10
2022-08-15T00:28:58.559Z,10.10
2022-08-15T00:34:03.435Z,8.90
2022-08-15T00:39:33.232Z,9.40
2022-08-15T00:44:52.548Z,10.70
2022-08-15T00:50:05.446Z,8.40
2022-08-15T00:55:18.242Z,8.90
2022-08-15T01:00:45.273Z,9.60
2022-08-15T01:05:53.002Z,9.10
2022-08-15T01:11:02.695Z,9.60
2022-08-15T01:16:09.865Z,8.70
2022-08-15T01:21:22.391Z,8.30
2022-08-15T01:26:41.885Z,8.90
2022-08-15T01:31:50.008Z,9.40
2022-08-15T01:36:55.600Z,9.30
2022-08-15T01:42:19.668Z,8.40
2022-08-15T01:47:43.359Z,8.00
2022-08-15T01:52:59.077Z,8.30
2022-08-15T01:58:13.273Z,8.20
2022-08-15T02:03:20.902Z,8.40
2022-08-15T02:08:35.713Z,8.90
2022-08-15T02:13:40.975Z,9.60
2022-08-15T02:18:47.870Z,8.90
2022-08-15T02:23:55.858Z,9.50
2022-08-15T02:34:17.030Z,7.40
2022-08-15T02:39:21.001Z,8.00
2022-08-15T02:44:27.364Z,8.50
2022-08-15T02:49:35.421Z,8.50
2022-08-15T02:54:59.870Z,8.40
2022-08-15T03:05:31.291Z,8.20
2022-08-15T03:10:39.892Z,9.10
2022-08-15T03:15:45.339Z,7.70
2022-08-15T03:21:05.999Z,8.10
2022-08-15T03:26:25.948Z,8.10
2022-08-15T03:31:41.665Z,9.00
2022-08-15T03:36:52.698Z,9.40
2022-08-15T03:41:56.935Z,8.90
2022-08-15T03:47:02.167Z,8.70
2022-08-15T03:52:08.011Z,7.00
2022-08-15T03:57:11.783Z,8.20
2022-08-15T04:02:30.481Z,9.30
2022-08-15T04:07:40.920Z,8.80
2022-08-15T04:12:46.471Z,8.70
2022-08-15T04:17:56.851Z,7.80
2022-08-15T04:23:02.320Z,8.60
2022-08-15T04:28:28.418Z,8.70
2022-08-15T04:34:01.345Z,7.70
2022-08-15T04:38:57.319Z,8.30
2022-08-15T04:49:08.112Z,8.00
2022-08-15T04:54:15.477Z,9.20
2022-08-15T04:59:35.564Z,7.50
2022-08-15T05:04:40.293Z,7.30
2022-08-15T05:09:59.944Z,6.80
2022-08-15T05:15:07.885Z,6.70
2022-08-15T05:20:17.677Z,7.00
2022-08-15T05:25:21.550Z,7.40
2022-08-15T05:30:29.365Z,6.90
2022-08-15T05:35:35.873Z,7.00
2022-08-15T05:41:06.247Z,6.70
2022-08-15T05:46:33.855Z,6.80
2022-08-15T05:51:54.187Z,6.60
2022-08-15T05:57:26.834Z,7.10
2022-08-15T06:02:50.753Z,6.50
2022-08-15T06:08:01.358Z,6.30
2022-08-15T06:13:10.944Z,6.60
2022-08-15T06:18:16.352Z,8.70
2022-08-15T06:23:45.032Z,6.90
2022-08-15T06:29:12.832Z,7.00
2022-08-15T06:34:45.732Z,7.30
2022-08-15T06:40:27.967Z,7.10
2022-08-15T06:45:36.903Z,6.30
2022-08-15T06:50:53.509Z,8.20
2022-08-15T06:56:05.937Z,7.80
2022-08-15T07:01:19.449Z,9.60
2022-08-15T07:06:36.826Z,6.60
2022-08-15T07:11:54.773Z,8.00
2022-08-15T07:17:19.595Z,6.50
2022-08-15T07:22:35.585Z,7.00
2022-08-15T07:27:56.164Z,6.00
2022-08-15T07:33:00.285Z,6.80
2022-08-15T07:38:30.583Z,5.20
2022-08-15T07:43:36.566Z,5.80
2022-08-15T07:49:11.256Z,6.40
2022-08-15T07:54:34.999Z,13.20
2022-08-15T08:05:54.323Z,8.10
2022-08-15T08:11:13.741Z,5.60
2022-08-15T08:16:30.675Z,5.40
2022-08-15T08:21:58.166Z,7.20
2022-08-15T08:27:24.487Z,5.00
2022-08-15T08:32:35.181Z,5.00
2022-08-15T08:38:30.990Z,5.80
2022-08-15T08:43:55.410Z,15.80
2022-08-15T08:49:21.774Z,5.50
2022-08-15T08:54:54.434Z,5.50
2022-08-15T09:00:04.242Z,5.30
2022-08-15T09:05:24.119Z,8.40
2022-08-15T09:10:36.257Z,6.90
2022-08-15T09:15:47.139Z,4.60
2022-08-15T09:20:58.526Z,6.10
2022-08-15T09:26:19.767Z,5.60
2022-08-15T09:36:56.176Z,3.90
2022-08-15T09:42:35.380Z,4.80
2022-08-15T09:53:01.411Z,4.50
2022-08-15T09:58:27.485Z,4.20
2022-08-15T10:03:53.967Z,4.50
2022-08-15T10:09:00.557Z,8.60
2022-08-15T10:14:13.825Z,4.80
2022-08-15T10:20:00.786Z,4.30
2022-08-15T10:25:29.876Z,4.90
2022-08-15T10:30:59.678Z,4.60
2022-08-15T10:36:20.741Z,4.50
2022-08-15T10:41:40.850Z,4.70
2022-08-15T10:47:01.262Z,4.50
2022-08-15T10:52:34.374Z,4.50
2022-08-15T10:57:47.929Z,4.40
2022-08-15T11:03:11.141Z,4.30
2022-08-15T11:08:19.325Z,5.10
2022-08-15T11:13:24.684Z,5.20
2022-08-15T11:18:35.840Z,6.20
2022-08-15T11:23:42.438Z,7.40
2022-08-15T11:28:56.649Z,5.50
2022-08-15T11:34:01.234Z,6.60
2022-08-15T11:39:27.459Z,4.90
2022-08-15T11:44:53.569Z,3.40
2022-08-15T11:50:08.934Z,5.30
2022-08-15T11:55:35.315Z,5.90
2022-08-15T12:00:40.221Z,5.30
2022-08-15T12:06:08.129Z,4.20
2022-08-15T12:11:35.495Z,4.00
2022-08-15T12:16:51.924Z,5.90
2022-08-15T12:22:53.292Z,3.90
2022-08-15T12:27:25.088Z,3.70
2022-08-15T12:32:38.495Z,7.20
2022-08-15T12:37:44.111Z,4.10
2022-08-15T12:42:56.870Z,4.20
2022-08-15T12:48:07.171Z,5.40
2022-08-15T12:53:11.672Z,3.90
2022-08-15T12:58:19.455Z,4.70
2022-08-15T13:03:39.512Z,6.30
2022-08-15T13:08:55.885Z,5.10
2022-08-15T13:14:01.756Z,4.30
2022-08-15T13:19:16.819Z,4.20
2022-08-15T13:24:27.600Z,4.00
2022-08-15T13:29:33.469Z,4.10
2022-08-15T13:34:45.716Z,4.00
2022-08-15T13:39:55.085Z,6.10
2022-08-15T13:45:00.021Z,4.30
2022-08-15T13:50:17.903Z,3.90
2022-08-15T13:55:29.940Z,3.60
2022-08-15T14:05:58.536Z,4.50
2022-08-15T14:11:13.710Z,9.90
2022-08-15T14:16:57.481Z,6.80
2022-08-15T14:21:49.076Z,3.90
2022-08-15T14:27:13.558Z,3.80
2022-08-15T14:37:58.417Z,7.00
2022-08-15T14:43:03.267Z,7.90
2022-08-15T14:48:31.990Z,4.90
2022-08-15T14:53:33.553Z,3.80
2022-08-15T14:58:40.920Z,4.30
2022-08-15T15:03:56.339Z,3.10
2022-08-15T15:09:01.728Z,4.60
2022-08-15T15:14:06.744Z,3.30
2022-08-15T15:19:16.804Z,3.40
2022-08-15T15:24:30.616Z,3.10
2022-08-15T15:29:46.746Z,4.20
2022-08-15T15:34:54.847Z,4.40
2022-08-15T15:39:58.624Z,4.70
2022-08-15T15:45:05.011Z,4.20
2022-08-15T15:50:25.891Z,8.00
2022-08-15T15:55:30.808Z,3.80
2022-08-15T16:00:37.825Z,4.00
2022-08-15T16:06:58.807Z,4.70
2022-08-15T16:11:20.356Z,5.00
2022-08-15T16:16:43.545Z,5.20
2022-08-15T16:22:19.978Z,4.70
2022-08-15T16:27:40.860Z,6.80
2022-08-15T16:32:49.696Z,6.50
2022-08-15T16:38:03.349Z,6.00
2022-08-15T16:43:54.044Z,6.30
2022-08-15T16:49:23.385Z,4.90
2022-08-15T16:54:52.720Z,4.20
2022-08-15T17:00:18.744Z,5.10
2022-08-15T17:06:03.644Z,6.90
2022-08-15T17:11:17.482Z,5.40
2022-08-15T17:16:27.211Z,6.10
2022-08-15T17:21:47.162Z,6.10
2022-08-15T17:27:27.074Z,7.80
2022-08-15T17:32:30.083Z,6.60
2022-08-15T17:37:44.141Z,5.80
2022-08-15T17:42:48.898Z,6.10
2022-08-15T17:48:29.691Z,7.60
2022-08-15T17:53:54.037Z,7.70
2022-08-15T17:59:09.901Z,7.10
2022-08-15T18:04:14.075Z,6.30
2022-08-15T18:10:43.553Z,7.40
2022-08-15T18:14:52.540Z,7.00
2022-08-15T18:20:42.854Z,8.50
2022-08-15T18:25:47.990Z,7.50
2022-08-15T18:30:59.419Z,6.60
2022-08-15T18:36:11.220Z,7.90
2022-08-15T18:41:30.975Z,8.20
2022-08-15T18:46:37.399Z,9.50
2022-08-15T18:51:56.370Z,7.10
2022-08-15T18:57:06.142Z,8.20
2022-08-15T19:02:35.418Z,9.70
2022-08-15T19:08:26.655Z,7.10
2022-08-15T19:13:57.581Z,8.90
2022-08-15T19:19:15.916Z,7.30
2022-08-15T19:24:28.338Z,7.50
2022-08-15T19:29:54.184Z,7.20
2022-08-15T19:35:31.898Z,8.30
2022-08-15T19:40:43.973Z,6.20
2022-08-15T19:46:12.471Z,8.20
2022-08-15T19:51:39.023Z,5.90
2022-08-15T19:57:01.124Z,6.30
2022-08-15T20:02:27.351Z,6.90
2022-08-15T20:07:44.883Z,6.90
2022-08-15T20:13:12.834Z,6.90
2022-08-15T20:18:39.719Z,8.50
2022-08-15T20:23:45.639Z,6.60
2022-08-15T20:29:14.501Z,6.90
2022-08-15T20:34:47.121Z,6.80
2022-08-15T20:40:03.939Z,6.30
2022-08-15T20:45:13.782Z,8.00
2022-08-15T20:50:24.199Z,6.20
2022-08-15T20:55:33.774Z,5.20
2022-08-15T21:01:18.155Z,6.70
2022-08-15T21:06:36.401Z,5.30
2022-08-15T21:11:56.003Z,5.30
2022-08-15T21:17:17.131Z,5.40
2022-08-15T21:22:45.642Z,5.00
2022-08-15T21:28:06.762Z,4.40
2022-08-15T21:33:39.360Z,5.30
2022-08-15T21:38:56.186Z,4.40
2022-08-15T21:44:08.858Z,4.70
2022-08-15T21:49:36.905Z,4.80
2022-08-15T21:54:51.381Z,4.80
2022-08-15T22:00:22.754Z,4.40
2022-08-15T22:05:34.138Z,4.80
2022-08-15T22:10:38.484Z,5.60
2022-08-15T22:15:42.316Z,5.50
2022-08-15T22:20:46.847Z,5.50
2022-08-15T22:26:00.397Z,5.30
2022-08-15T22:31:09.784Z,5.30
2022-08-15T22:36:19.206Z,5.40
2022-08-15T22:41:27.939Z,5.40
2022-08-15T22:46:43.338Z,6.00
2022-08-15T22:51:55.559Z,6.10
2022-08-15T22:57:02.594Z,6.40
2022-08-15T23:02:18.623Z,6.30
2022-08-15T23:07:26.380Z,5.90
2022-08-15T23:12:35.840Z,6.50
2022-08-15T23:17:49.387Z,6.40
2022-08-15T23:27:59.694Z,6.40
2022-08-15T23:33:08.031Z,6.40
2022-08-15T23:38:33.844Z,6.30
2022-08-15T23:43:55.811Z,6.70
2022-08-15T23:49:00.249Z,7.50
2022-08-15T23:54:05.094Z,6.80
2022-08-15T23:59:16.598Z,6.50
